sensor_id;sensor_type;location;lat;lon;timestamp;temperature;humidity
6520;DHT22;3293;51.690;5.982;2023-06-22T00:00:19;19.70;99.50
6520;DHT22;3293;51.690;5.982;2023-06-22T00:05:19;19.70;99.60
6520;DHT22;3293;51.690;5.982;2023-06-22T00:10:20;19.70;99.90
6520;DHT22;3293;51.690;5.982;2023-06-22T00:15:20;19.60;99.90
6520;DHT22;3293;51.690;5.982;2023-06-22T00:20:20;19.60;99.90
6520;DHT22;3293;51.690;5.982;2023-06-22T00:25:21;19.50;99.90
6520;DHT22;3293;51.690;5.982;2023-06-22T00:30:21;19.40;99.90
6520;DHT22;3293;51.690;5.982;2023-06-22T00:35:21;19.30;99.90
6520;DHT22;3293;51.690;5.982;2023-06-22T00:40:21;19.30;99.90
6520;DHT22;3293;51.690;5.982;2023-06-22T00:45:22;19.20;99.90
6520;DHT22;3293;51.690;5.982;2023-06-22T00:50:24;19.30;99.90
6520;DHT22;3293;51.690;5.982;2023-06-22T00:55:25;19.30;99.90
6520;DHT22;3293;51.690;5.982;2023-06-22T01:00:28;19.20;99.90
6520;DHT22;3293;51.690;5.982;2023-06-22T01:05:28;19.20;99.90
6520;DHT22;3293;51.690;5.982;2023-06-22T01:10:48;19.20;99.90
6520;DHT22;3293;51.690;5.982;2023-06-22T01:16:07;19.20;99.90
6520;DHT22;3293;51.690;5.982;2023-06-22T01:21:17;19.10;99.90
6520;DHT22;3293;51.690;5.982;2023-06-22T01:26:22;19.00;99.90
6520;DHT22;3293;51.690;5.982;2023-06-22T01:31:28;19.00;99.90
6520;DHT22;3293;51.690;5.982;2023-06-22T01:36:30;19.00;99.90
6520;DHT22;3293;51.690;5.982;2023-06-22T01:41:36;18.90;99.90
6520;DHT22;3293;51.690;5.982;2023-06-22T01:46:37;18.80;99.90
6520;DHT22;3293;51.690;5.982;2023-06-22T01:51:38;18.80;99.90
6520;DHT22;3293;51.690;5.982;2023-06-22T01:56:38;18.80;99.90
6520;DHT22;3293;51.690;5.982;2023-06-22T02:02:01;18.80;99.90
6520;DHT22;3293;51.690;5.982;2023-06-22T02:07:06;18.80;99.90
6520;DHT22;3293;51.690;5.982;2023-06-22T02:12:11;18.70;99.90
6520;DHT22;3293;51.690;5.982;2023-06-22T02:17:12;18.60;99.90
6520;DHT22;3293;51.690;5.982;2023-06-22T02:22:13;18.60;99.90
6520;DHT22;3293;51.690;5.982;2023-06-22T02:27:13;18.60;99.90
6520;DHT22;3293;51.690;5.982;2023-06-22T02:32:13;18.50;99.90
6520;DHT22;3293;51.690;5.982;2023-06-22T02:37:17;18.50;99.90
6520;DHT22;3293;51.690;5.982;2023-06-22T02:42:17;18.50;99.90
6520;DHT22;3293;51.690;5.982;2023-06-22T02:47:20;18.50;99.90
6520;DHT22;3293;51.690;5.982;2023-06-22T02:52:20;18.50;99.90
6520;DHT22;3293;51.690;5.982;2023-06-22T02:57:20;18.40;99.90
6520;DHT22;3293;51.690;5.982;2023-06-22T03:02:20;18.50;99.90
6520;DHT22;3293;51.690;5.982;2023-06-22T03:07:22;18.40;99.90
6520;DHT22;3293;51.690;5.982;2023-06-22T03:12:22;18.40;99.90
6520;DHT22;3293;51.690;5.982;2023-06-22T03:17:22;18.40;99.90
6520;DHT22;3293;51.690;5.982;2023-06-22T03:22:22;18.30;99.90
6520;DHT22;3293;51.690;5.982;2023-06-22T03:27:22;18.30;99.90
6520;DHT22;3293;51.690;5.982;2023-06-22T03:32:21;18.20;99.90
6520;DHT22;3293;51.690;5.982;2023-06-22T03:37:21;18.20;99.90
6520;DHT22;3293;51.690;5.982;2023-06-22T03:42:21;18.20;99.90
6520;DHT22;3293;51.690;5.982;2023-06-22T03:47:22;18.20;99.90
6520;DHT22;3293;51.690;5.982;2023-06-22T03:52:22;18.20;99.90
6520;DHT22;3293;51.690;5.982;2023-06-22T03:57:22;18.10;99.90
6520;DHT22;3293;51.690;5.982;2023-06-22T04:02:22;18.00;99.90
6520;DHT22;3293;51.690;5.982;2023-06-22T04:07:22;18.10;99.90
6520;DHT22;3293;51.690;5.982;2023-06-22T04:12:22;18.10;99.90
6520;DHT22;3293;51.690;5.982;2023-06-22T04:17:22;18.10;99.90
6520;DHT22;3293;51.690;5.982;2023-06-22T04:22:24;18.10;99.90
6520;DHT22;3293;51.690;5.982;2023-06-22T04:27:24;18.20;99.90
6520;DHT22;3293;51.690;5.982;2023-06-22T04:32:24;18.30;99.90
6520;DHT22;3293;51.690;5.982;2023-06-22T04:37:24;18.50;99.90
6520;DHT22;3293;51.690;5.982;2023-06-22T04:42:27;18.60;99.90
6520;DHT22;3293;51.690;5.982;2023-06-22T04:47:27;18.70;99.90
6520;DHT22;3293;51.690;5.982;2023-06-22T04:52:27;18.90;99.90
6520;DHT22;3293;51.690;5.982;2023-06-22T04:57:27;18.90;99.90
6520;DHT22;3293;51.690;5.982;2023-06-22T05:02:32;19.50;99.90
6520;DHT22;3293;51.690;5.982;2023-06-22T05:07:34;20.00;99.90
6520;DHT22;3293;51.690;5.982;2023-06-22T05:12:34;21.10;99.70
6520;DHT22;3293;51.690;5.982;2023-06-22T05:17:35;22.20;95.20
6520;DHT22;3293;51.690;5.982;2023-06-22T05:22:36;22.70;93.00
6520;DHT22;3293;51.690;5.982;2023-06-22T05:27:37;22.40;92.90
6520;DHT22;3293;51.690;5.982;2023-06-22T05:32:40;22.90;91.70
6520;DHT22;3293;51.690;5.982;2023-06-22T05:37:40;23.30;90.30
6520;DHT22;3293;51.690;5.982;2023-06-22T05:42:40;24.00;83.20
6520;DHT22;3293;51.690;5.982;2023-06-22T05:47:39;24.00;82.30
6520;DHT22;3293;51.690;5.982;2023-06-22T05:52:39;25.00;76.00
6520;DHT22;3293;51.690;5.982;2023-06-22T05:57:39;24.90;71.80
6520;DHT22;3293;51.690;5.982;2023-06-22T06:02:40;24.10;79.10
6520;DHT22;3293;51.690;5.982;2023-06-22T06:07:44;22.90;89.50
6520;DHT22;3293;51.690;5.982;2023-06-22T06:12:45;22.80;90.50
6520;DHT22;3293;51.690;5.982;2023-06-22T06:17:46;22.60;91.50
6520;DHT22;3293;51.690;5.982;2023-06-22T06:22:46;22.10;93.60
6520;DHT22;3293;51.690;5.982;2023-06-22T06:27:47;22.00;94.30
6520;DHT22;3293;51.690;5.982;2023-06-22T06:32:48;21.80;95.90
6520;DHT22;3293;51.690;5.982;2023-06-22T06:37:49;22.00;96.40
6520;DHT22;3293;51.690;5.982;2023-06-22T06:42:49;21.90;96.50
6520;DHT22;3293;51.690;5.982;2023-06-22T06:47:51;22.10;96.50
6520;DHT22;3293;51.690;5.982;2023-06-22T06:52:51;22.20;95.70
6520;DHT22;3293;51.690;5.982;2023-06-22T06:57:52;22.30;95.70
6520;DHT22;3293;51.690;5.982;2023-06-22T07:02:53;22.20;96.30
6520;DHT22;3293;51.690;5.982;2023-06-22T07:07:53;22.30;96.40
6520;DHT22;3293;51.690;5.982;2023-06-22T07:12:53;22.40;95.80
6520;DHT22;3293;51.690;5.982;2023-06-22T07:17:53;22.30;95.80
6520;DHT22;3293;51.690;5.982;2023-06-22T07:22:53;22.50;95.60
6520;DHT22;3293;51.690;5.982;2023-06-22T07:28:03;22.50;95.40
6520;DHT22;3293;51.690;5.982;2023-06-22T07:33:03;22.50;95.60
6520;DHT22;3293;51.690;5.982;2023-06-22T07:38:07;22.30;95.80
6520;DHT22;3293;51.690;5.982;2023-06-22T07:43:09;22.10;96.90
6520;DHT22;3293;51.690;5.982;2023-06-22T07:48:09;22.30;96.70
6520;DHT22;3293;51.690;5.982;2023-06-22T07:53:09;22.30;96.80
6520;DHT22;3293;51.690;5.982;2023-06-22T07:58:09;22.60;96.80
6520;DHT22;3293;51.690;5.982;2023-06-22T08:03:09;23.10;95.40
6520;DHT22;3293;51.690;5.982;2023-06-22T08:08:08;23.50;90.70
6520;DHT22;3293;51.690;5.982;2023-06-22T08:13:09;23.70;86.00
6520;DHT22;3293;51.690;5.982;2023-06-22T08:18:10;24.10;84.40
6520;DHT22;3293;51.690;5.982;2023-06-22T08:23:10;24.70;78.60
6520;DHT22;3293;51.690;5.982;2023-06-22T08:28:10;25.30;72.90
6520;DHT22;3293;51.690;5.982;2023-06-22T08:33:10;25.10;73.30
6520;DHT22;3293;51.690;5.982;2023-06-22T08:38:10;24.90;73.20
6520;DHT22;3293;51.690;5.982;2023-06-22T08:43:15;24.70;75.30
6520;DHT22;3293;51.690;5.982;2023-06-22T08:48:15;25.20;71.60
6520;DHT22;3293;51.690;5.982;2023-06-22T08:53:15;25.30;70.50
6520;DHT22;3293;51.690;5.982;2023-06-22T08:58:15;25.40;63.90
6520;DHT22;3293;51.690;5.982;2023-06-22T09:03:15;25.20;68.50
6520;DHT22;3293;51.690;5.982;2023-06-22T09:08:15;25.00;67.40
6520;DHT22;3293;51.690;5.982;2023-06-22T09:13:16;24.80;66.70
6520;DHT22;3293;51.690;5.982;2023-06-22T09:18:15;24.70;69.90
6520;DHT22;3293;51.690;5.982;2023-06-22T09:23:15;24.80;66.60
6520;DHT22;3293;51.690;5.982;2023-06-22T09:28:16;24.70;67.30
6520;DHT22;3293;51.690;5.982;2023-06-22T09:33:16;24.70;67.10
6520;DHT22;3293;51.690;5.982;2023-06-22T09:38:16;24.60;68.60
6520;DHT22;3293;51.690;5.982;2023-06-22T09:43:16;24.50;69.10
6520;DHT22;3293;51.690;5.982;2023-06-22T09:48:17;24.40;70.50
6520;DHT22;3293;51.690;5.982;2023-06-22T09:53:17;24.30;72.60
6520;DHT22;3293;51.690;5.982;2023-06-22T09:58:17;24.30;72.90
6520;DHT22;3293;51.690;5.982;2023-06-22T10:03:17;24.10;75.90
6520;DHT22;3293;51.690;5.982;2023-06-22T10:08:17;24.00;77.50
6520;DHT22;3293;51.690;5.982;2023-06-22T10:13:17;23.80;78.00
6520;DHT22;3293;51.690;5.982;2023-06-22T10:18:18;23.60;78.00
6520;DHT22;3293;51.690;5.982;2023-06-22T10:23:19;23.60;79.70
6520;DHT22;3293;51.690;5.982;2023-06-22T10:28:19;23.60;80.00
6520;DHT22;3293;51.690;5.982;2023-06-22T10:33:19;23.50;81.50
6520;DHT22;3293;51.690;5.982;2023-06-22T10:38:20;23.50;80.00
6520;DHT22;3293;51.690;5.982;2023-06-22T10:43:21;23.50;79.40
6520;DHT22;3293;51.690;5.982;2023-06-22T10:48:21;23.50;79.90
6520;DHT22;3293;51.690;5.982;2023-06-22T10:53:21;23.30;80.50
6520;DHT22;3293;51.690;5.982;2023-06-22T10:58:21;23.50;79.30
6520;DHT22;3293;51.690;5.982;2023-06-22T11:03:22;23.60;79.20
6520;DHT22;3293;51.690;5.982;2023-06-22T11:08:22;23.60;80.20
6520;DHT22;3293;51.690;5.982;2023-06-22T11:13:22;23.10;93.20
6520;DHT22;3293;51.690;5.982;2023-06-22T11:18:22;22.10;99.90
6520;DHT22;3293;51.690;5.982;2023-06-22T11:23:22;21.60;99.90
6520;DHT22;3293;51.690;5.982;2023-06-22T11:28:22;20.90;99.90
6520;DHT22;3293;51.690;5.982;2023-06-22T11:33:22;20.60;99.90
6520;DHT22;3293;51.690;5.982;2023-06-22T11:38:22;20.40;99.90
6520;DHT22;3293;51.690;5.982;2023-06-22T11:43:22;20.30;99.90
6520;DHT22;3293;51.690;5.982;2023-06-22T11:48:22;20.10;99.90
6520;DHT22;3293;51.690;5.982;2023-06-22T11:53:24;20.10;99.90
6520;DHT22;3293;51.690;5.982;2023-06-22T11:58:24;20.00;99.90
6520;DHT22;3293;51.690;5.982;2023-06-22T12:03:24;20.00;99.90
6520;DHT22;3293;51.690;5.982;2023-06-22T12:08:25;19.90;99.90
6520;DHT22;3293;51.690;5.982;2023-06-22T12:13:25;19.80;99.90
6520;DHT22;3293;51.690;5.982;2023-06-22T12:18:25;19.70;99.90
6520;DHT22;3293;51.690;5.982;2023-06-22T12:23:25;19.70;99.90
6520;DHT22;3293;51.690;5.982;2023-06-22T12:28:25;19.60;99.90
6520;DHT22;3293;51.690;5.982;2023-06-22T12:33:25;19.70;99.90
6520;DHT22;3293;51.690;5.982;2023-06-22T12:38:26;19.60;99.90
6520;DHT22;3293;51.690;5.982;2023-06-22T12:43:25;19.60;99.90
6520;DHT22;3293;51.690;5.982;2023-06-22T12:48:28;19.50;99.90
6520;DHT22;3293;51.690;5.982;2023-06-22T12:53:28;19.60;99.90
6520;DHT22;3293;51.690;5.982;2023-06-22T12:58:28;19.80;99.90
6520;DHT22;3293;51.690;5.982;2023-06-22T13:03:29;19.90;99.90
6520;DHT22;3293;51.690;5.982;2023-06-22T13:08:29;20.00;99.90
6520;DHT22;3293;51.690;5.982;2023-06-22T13:13:29;20.00;99.90
6520;DHT22;3293;51.690;5.982;2023-06-22T13:18:29;20.10;99.90
6520;DHT22;3293;51.690;5.982;2023-06-22T13:23:29;20.00;99.90
6520;DHT22;3293;51.690;5.982;2023-06-22T13:28:29;20.00;99.90
6520;DHT22;3293;51.690;5.982;2023-06-22T13:33:30;20.10;99.90
6520;DHT22;3293;51.690;5.982;2023-06-22T13:38:30;20.20;99.90
6520;DHT22;3293;51.690;5.982;2023-06-22T13:43:31;20.00;99.90
6520;DHT22;3293;51.690;5.982;2023-06-22T13:48:31;19.90;99.90
6520;DHT22;3293;51.690;5.982;2023-06-22T13:53:32;19.90;99.90
6520;DHT22;3293;51.690;5.982;2023-06-22T13:58:32;19.90;99.90
6520;DHT22;3293;51.690;5.982;2023-06-22T14:03:32;20.00;99.90
6520;DHT22;3293;51.690;5.982;2023-06-22T14:08:32;20.10;99.90
6520;DHT22;3293;51.690;5.982;2023-06-22T14:13:32;20.10;99.90
6520;DHT22;3293;51.690;5.982;2023-06-22T14:18:32;20.10;99.90
6520;DHT22;3293;51.690;5.982;2023-06-22T14:23:32;20.10;99.90
6520;DHT22;3293;51.690;5.982;2023-06-22T14:28:32;20.10;99.90
6520;DHT22;3293;51.690;5.982;2023-06-22T14:33:32;19.90;99.90
6520;DHT22;3293;51.690;5.982;2023-06-22T14:38:32;19.80;99.90
6520;DHT22;3293;51.690;5.982;2023-06-22T14:43:33;19.70;99.90
6520;DHT22;3293;51.690;5.982;2023-06-22T14:48:33;19.60;99.90
6520;DHT22;3293;51.690;5.982;2023-06-22T14:53:33;19.50;99.90
6520;DHT22;3293;51.690;5.982;2023-06-22T14:58:35;19.40;99.90
6520;DHT22;3293;51.690;5.982;2023-06-22T15:03:38;19.30;99.90
6520;DHT22;3293;51.690;5.982;2023-06-22T15:08:41;19.20;99.90
6520;DHT22;3293;51.690;5.982;2023-06-22T15:13:42;19.20;99.90
6520;DHT22;3293;51.690;5.982;2023-06-22T15:18:42;19.10;99.90
6520;DHT22;3293;51.690;5.982;2023-06-22T15:23:42;19.00;99.90
6520;DHT22;3293;51.690;5.982;2023-06-22T15:28:42;18.90;99.90
6520;DHT22;3293;51.690;5.982;2023-06-22T15:33:43;18.80;99.90
6520;DHT22;3293;51.690;5.982;2023-06-22T15:38:43;18.80;99.90
6520;DHT22;3293;51.690;5.982;2023-06-22T15:43:43;18.70;99.90
6520;DHT22;3293;51.690;5.982;2023-06-22T15:48:43;18.70;99.90
6520;DHT22;3293;51.690;5.982;2023-06-22T15:53:44;18.60;99.90
6520;DHT22;3293;51.690;5.982;2023-06-22T15:58:44;18.60;99.90
6520;DHT22;3293;51.690;5.982;2023-06-22T16:03:44;18.40;99.90
6520;DHT22;3293;51.690;5.982;2023-06-22T16:08:44;18.50;99.90
6520;DHT22;3293;51.690;5.982;2023-06-22T16:13:44;18.50;99.90
6520;DHT22;3293;51.690;5.982;2023-06-22T16:18:45;18.40;99.90
6520;DHT22;3293;51.690;5.982;2023-06-22T16:23:46;18.40;99.90
6520;DHT22;3293;51.690;5.982;2023-06-22T16:28:47;18.30;99.90
6520;DHT22;3293;51.690;5.982;2023-06-22T16:33:47;18.30;99.90
6520;DHT22;3293;51.690;5.982;2023-06-22T16:38:49;18.40;99.90
6520;DHT22;3293;51.690;5.982;2023-06-22T16:43:52;18.40;99.90
6520;DHT22;3293;51.690;5.982;2023-06-22T16:48:52;18.30;99.90
6520;DHT22;3293;51.690;5.982;2023-06-22T16:53:56;18.30;99.90
6520;DHT22;3293;51.690;5.982;2023-06-22T16:58:57;18.40;99.90
6520;DHT22;3293;51.690;5.982;2023-06-22T17:09:03;18.30;99.90
6520;DHT22;3293;51.690;5.982;2023-06-22T17:14:06;18.30;99.90
6520;DHT22;3293;51.690;5.982;2023-06-22T17:19:06;18.30;99.90
6520;DHT22;3293;51.690;5.982;2023-06-22T17:24:06;18.20;99.90
6520;DHT22;3293;51.690;5.982;2023-06-22T17:29:08;18.20;99.90
6520;DHT22;3293;51.690;5.982;2023-06-22T17:34:16;18.10;99.90
6520;DHT22;3293;51.690;5.982;2023-06-22T17:39:24;18.10;99.90
6520;DHT22;3293;51.690;5.982;2023-06-22T17:44:27;18.10;99.90
6520;DHT22;3293;51.690;5.982;2023-06-22T17:49:29;18.10;99.90
6520;DHT22;3293;51.690;5.982;2023-06-22T17:54:32;18.20;99.90
6520;DHT22;3293;51.690;5.982;2023-06-22T17:59:32;18.20;99.90
6520;DHT22;3293;51.690;5.982;2023-06-22T18:04:33;18.20;99.90
6520;DHT22;3293;51.690;5.982;2023-06-22T18:09:34;18.10;99.90
6520;DHT22;3293;51.690;5.982;2023-06-22T18:14:35;18.20;99.90
6520;DHT22;3293;51.690;5.982;2023-06-22T18:19:38;18.20;99.90
6520;DHT22;3293;51.690;5.982;2023-06-22T18:24:40;18.20;99.90
6520;DHT22;3293;51.690;5.982;2023-06-22T18:29:42;18.20;99.90
6520;DHT22;3293;51.690;5.982;2023-06-22T18:34:43;18.30;99.90
6520;DHT22;3293;51.690;5.982;2023-06-22T18:39:45;18.30;99.90
6520;DHT22;3293;51.690;5.982;2023-06-22T18:44:53;18.30;99.90
6520;DHT22;3293;51.690;5.982;2023-06-22T18:50:03;18.30;99.90
6520;DHT22;3293;51.690;5.982;2023-06-22T18:55:05;18.30;99.90
6520;DHT22;3293;51.690;5.982;2023-06-22T19:00:14;18.30;99.90
6520;DHT22;3293;51.690;5.982;2023-06-22T19:05:40;18.30;99.90
6520;DHT22;3293;51.690;5.982;2023-06-22T19:10:41;18.30;99.90
6520;DHT22;3293;51.690;5.982;2023-06-22T19:15:42;18.30;99.90
6520;DHT22;3293;51.690;5.982;2023-06-22T19:20:52;18.20;99.90
6520;DHT22;3293;51.690;5.982;2023-06-22T19:25:55;18.10;99.90
6520;DHT22;3293;51.690;5.982;2023-06-22T19:31:00;18.00;99.90
6520;DHT22;3293;51.690;5.982;2023-06-22T19:36:01;18.00;99.90
6520;DHT22;3293;51.690;5.982;2023-06-22T19:41:02;18.00;99.90
6520;DHT22;3293;51.690;5.982;2023-06-22T19:46:05;18.00;99.90
6520;DHT22;3293;51.690;5.982;2023-06-22T19:51:06;18.00;99.90
6520;DHT22;3293;51.690;5.982;2023-06-22T19:56:07;18.00;99.90
6520;DHT22;3293;51.690;5.982;2023-06-22T20:01:09;17.90;99.90
6520;DHT22;3293;51.690;5.982;2023-06-22T20:06:14;17.90;99.90
6520;DHT22;3293;51.690;5.982;2023-06-22T20:11:22;17.80;99.90
6520;DHT22;3293;51.690;5.982;2023-06-22T20:16:23;17.80;99.90
6520;DHT22;3293;51.690;5.982;2023-06-22T20:21:24;17.70;99.90
6520;DHT22;3293;51.690;5.982;2023-06-22T20:26:24;17.70;99.90
6520;DHT22;3293;51.690;5.982;2023-06-22T20:31:27;17.70;99.90
6520;DHT22;3293;51.690;5.982;2023-06-22T20:36:27;17.60;99.90
6520;DHT22;3293;51.690;5.982;2023-06-22T20:41:28;17.60;99.90
6520;DHT22;3293;51.690;5.982;2023-06-22T20:46:31;17.50;99.90
6520;DHT22;3293;51.690;5.982;2023-06-22T20:51:31;17.40;99.90
6520;DHT22;3293;51.690;5.982;2023-06-22T20:56:32;17.40;99.90
6520;DHT22;3293;51.690;5.982;2023-06-22T21:01:34;17.40;99.90
6520;DHT22;3293;51.690;5.982;2023-06-22T21:06:35;17.50;99.90
6520;DHT22;3293;51.690;5.982;2023-06-22T21:11:36;17.50;99.90
6520;DHT22;3293;51.690;5.982;2023-06-22T21:16:36;17.40;99.90
6520;DHT22;3293;51.690;5.982;2023-06-22T21:21:37;17.40;99.90
6520;DHT22;3293;51.690;5.982;2023-06-22T21:26:38;17.30;99.90
6520;DHT22;3293;51.690;5.982;2023-06-22T21:31:38;17.10;99.90
6520;DHT22;3293;51.690;5.982;2023-06-22T21:36:38;17.10;99.90
6520;DHT22;3293;51.690;5.982;2023-06-22T21:41:38;17.00;99.90
6520;DHT22;3293;51.690;5.982;2023-06-22T21:46:38;16.90;99.90
6520;DHT22;3293;51.690;5.982;2023-06-22T21:51:38;16.90;99.90
6520;DHT22;3293;51.690;5.982;2023-06-22T21:56:38;16.80;99.90
6520;DHT22;3293;51.690;5.982;2023-06-22T22:01:38;16.70;99.90
6520;DHT22;3293;51.690;5.982;2023-06-22T22:06:38;16.60;99.90
6520;DHT22;3293;51.690;5.982;2023-06-22T22:11:38;16.50;99.90
6520;DHT22;3293;51.690;5.982;2023-06-22T22:16:41;16.60;99.90
6520;DHT22;3293;51.690;5.982;2023-06-22T22:21:41;16.50;99.90
6520;DHT22;3293;51.690;5.982;2023-06-22T22:26:44;16.50;99.90
6520;DHT22;3293;51.690;5.982;2023-06-22T22:31:44;16.50;99.90
6520;DHT22;3293;51.690;5.982;2023-06-22T22:36:44;16.50;99.90
6520;DHT22;3293;51.690;5.982;2023-06-22T22:41:44;16.40;99.90
6520;DHT22;3293;51.690;5.982;2023-06-22T22:46:44;16.30;99.90
6520;DHT22;3293;51.690;5.982;2023-06-22T22:51:44;16.40;99.90
6520;DHT22;3293;51.690;5.982;2023-06-22T22:56:45;16.40;99.90
6520;DHT22;3293;51.690;5.982;2023-06-22T23:01:45;16.30;99.90
6520;DHT22;3293;51.690;5.982;2023-06-22T23:06:45;16.30;99.90
6520;DHT22;3293;51.690;5.982;2023-06-22T23:11:45;16.30;99.90
6520;DHT22;3293;51.690;5.982;2023-06-22T23:16:46;16.30;99.90
6520;DHT22;3293;51.690;5.982;2023-06-22T23:21:46;16.30;99.90
6520;DHT22;3293;51.690;5.982;2023-06-22T23:26:48;16.30;99.90
6520;DHT22;3293;51.690;5.982;2023-06-22T23:31:49;16.30;99.90
6520;DHT22;3293;51.690;5.982;2023-06-22T23:36:49;16.40;99.90
6520;DHT22;3293;51.690;5.982;2023-06-22T23:41:50;16.30;99.90
6520;DHT22;3293;51.690;5.982;2023-06-22T23:46:50;16.30;99.90
6520;DHT22;3293;51.690;5.982;2023-06-22T23:51:51;16.30;99.90
6520;DHT22;3293;51.690;5.982;2023-06-22T23:56:52;16.30;99.90
